sensor_id;sensor_type;location;lat;lon;timestamp;temperature;humidity
12889;DHT22;56848;49.896;11.424;2022-08-21T12:38:32;19.50;99.90
12889;DHT22;56848;49.896;11.424;2022-08-21T12:41:27;23.80;99.90
12889;DHT22;56848;49.896;11.424;2022-08-21T12:43:58;23.80;99.90
12889;DHT22;56848;49.896;11.424;2022-08-21T12:46:43;23.70;99.90
12889;DHT22;56848;49.896;11.424;2022-08-21T12:49:21;23.80;99.90
12889;DHT22;56848;49.896;11.424;2022-08-21T12:51:56;23.90;99.90
12889;DHT22;56848;49.896;11.424;2022-08-21T13:49:08;24.10;99.90
12889;DHT22;56848;49.896;11.424;2022-08-21T13:51:35;24.60;99.90
12889;DHT22;56848;49.896;11.424;2022-08-21T13:54:01;24.50;99.90
12889;DHT22;56848;49.896;11.424;2022-08-21T13:56:43;24.60;99.90
12889;DHT22;56848;49.896;11.424;2022-08-21T13:59:09;24.70;99.90
12889;DHT22;56848;49.896;11.424;2022-08-21T14:01:48;24.80;99.90
12889;DHT22;56848;49.896;11.424;2022-08-21T14:04:24;24.70;99.90
12889;DHT22;56848;49.896;11.424;2022-08-21T14:06:51;24.70;99.90
12889;DHT22;56848;49.896;11.424;2022-08-21T14:09:41;24.70;99.90
12889;DHT22;56848;49.896;11.424;2022-08-21T14:12:26;24.70;99.90
12889;DHT22;56848;49.896;11.424;2022-08-21T14:14:55;24.70;99.90
12889;DHT22;56848;49.896;11.424;2022-08-21T14:17:36;24.90;99.90
12889;DHT22;56848;49.896;11.424;2022-08-21T14:20:05;24.90;99.90
12889;DHT22;56848;49.896;11.424;2022-08-21T14:22:40;24.70;99.90
12889;DHT22;56848;49.896;11.424;2022-08-21T14:30:22;24.30;99.90
12889;DHT22;56848;49.896;11.424;2022-08-21T14:32:52;24.40;99.90
12889;DHT22;56848;49.896;11.424;2022-08-21T14:35:17;24.60;99.90
12889;DHT22;56848;49.896;11.424;2022-08-21T14:37:44;24.60;99.90
12889;DHT22;56848;49.896;11.424;2022-08-21T14:40:11;24.70;99.90
12889;DHT22;56848;49.896;11.424;2022-08-21T14:42:38;24.50;99.90
12889;DHT22;56848;49.896;11.424;2022-08-21T14:47:38;24.40;99.90
12889;DHT22;56848;49.896;11.424;2022-08-21T14:50:04;24.60;99.90
12889;DHT22;56848;49.896;11.424;2022-08-21T14:52:30;24.30;99.90
12889;DHT22;56848;49.896;11.424;2022-08-21T14:54:55;24.00;99.90
12889;DHT22;56848;49.896;11.424;2022-08-21T14:57:31;23.80;99.90
12889;DHT22;56848;49.896;11.424;2022-08-21T14:59:57;23.60;99.90
12889;DHT22;56848;49.896;11.424;2022-08-21T15:02:24;23.70;99.90
12889;DHT22;56848;49.896;11.424;2022-08-21T15:04:49;23.70;99.90
12889;DHT22;56848;49.896;11.424;2022-08-21T15:07:15;23.50;99.90
12889;DHT22;56848;49.896;11.424;2022-08-21T15:09:40;23.40;99.90
12889;DHT22;56848;49.896;11.424;2022-08-21T15:12:07;23.20;99.90
12889;DHT22;56848;49.896;11.424;2022-08-21T15:14:36;23.10;99.90
12889;DHT22;56848;49.896;11.424;2022-08-21T15:17:05;23.00;99.90
12889;DHT22;56848;49.896;11.424;2022-08-21T15:19:31;22.90;99.90
12889;DHT22;56848;49.896;11.424;2022-08-21T15:21:56;22.90;99.90
12889;DHT22;56848;49.896;11.424;2022-08-21T15:24:22;22.90;99.90
12889;DHT22;56848;49.896;11.424;2022-08-21T15:26:48;23.00;99.90
12889;DHT22;56848;49.896;11.424;2022-08-21T15:29:14;23.10;99.90
12889;DHT22;56848;49.896;11.424;2022-08-21T15:34:40;23.20;99.90
12889;DHT22;56848;49.896;11.424;2022-08-21T15:37:06;23.10;99.90
12889;DHT22;56848;49.896;11.424;2022-08-21T15:39:34;23.00;99.90
12889;DHT22;56848;49.896;11.424;2022-08-21T15:41:59;23.00;99.90
12889;DHT22;56848;49.896;11.424;2022-08-21T15:44:27;23.00;99.90
12889;DHT22;56848;49.896;11.424;2022-08-21T15:46:53;23.20;99.90
12889;DHT22;56848;49.896;11.424;2022-08-21T15:49:19;23.20;99.90
12889;DHT22;56848;49.896;11.424;2022-08-21T15:51:45;23.20;99.90
12889;DHT22;56848;49.896;11.424;2022-08-21T15:54:10;23.30;99.90
12889;DHT22;56848;49.896;11.424;2022-08-21T15:56:39;23.40;99.90
12889;DHT22;56848;49.896;11.424;2022-08-21T15:59:08;23.60;99.90
12889;DHT22;56848;49.896;11.424;2022-08-21T16:01:35;23.50;99.90
12889;DHT22;56848;49.896;11.424;2022-08-21T16:04:02;23.40;99.90
12889;DHT22;56848;49.896;11.424;2022-08-21T16:06:28;23.50;99.90
12889;DHT22;56848;49.896;11.424;2022-08-21T16:08:54;23.40;99.90
12889;DHT22;56848;49.896;11.424;2022-08-21T16:11:20;23.20;99.90
12889;DHT22;56848;49.896;11.424;2022-08-21T16:13:46;23.10;99.90
12889;DHT22;56848;49.896;11.424;2022-08-21T16:16:16;22.90;99.90
12889;DHT22;56848;49.896;11.424;2022-08-21T16:18:43;22.90;99.90
12889;DHT22;56848;49.896;11.424;2022-08-21T16:21:09;23.00;99.90
12889;DHT22;56848;49.896;11.424;2022-08-21T16:23:35;23.20;99.90
12889;DHT22;56848;49.896;11.424;2022-08-21T16:26:02;23.40;99.90
12889;DHT22;56848;49.896;11.424;2022-08-21T16:28:29;23.40;99.90
12889;DHT22;56848;49.896;11.424;2022-08-21T16:30:55;23.30;99.90
12889;DHT22;56848;49.896;11.424;2022-08-21T16:33:37;23.30;99.90
12889;DHT22;56848;49.896;11.424;2022-08-21T16:36:06;23.20;99.90
12889;DHT22;56848;49.896;11.424;2022-08-21T16:38:32;23.10;99.90
12889;DHT22;56848;49.896;11.424;2022-08-21T16:40:59;23.10;99.90
12889;DHT22;56848;49.896;11.424;2022-08-21T16:43:26;22.90;99.90
12889;DHT22;56848;49.896;11.424;2022-08-21T16:45:53;22.80;99.90
12889;DHT22;56848;49.896;11.424;2022-08-21T16:48:20;22.70;99.90
12889;DHT22;56848;49.896;11.424;2022-08-21T16:50:45;22.50;99.90
12889;DHT22;56848;49.896;11.424;2022-08-21T16:53:11;22.30;99.90
12889;DHT22;56848;49.896;11.424;2022-08-21T16:55:37;22.00;99.90
12889;DHT22;56848;49.896;11.424;2022-08-21T16:58:16;21.80;99.90
12889;DHT22;56848;49.896;11.424;2022-08-21T17:00:43;21.50;99.90
12889;DHT22;56848;49.896;11.424;2022-08-21T17:03:13;21.40;99.90
12889;DHT22;56848;49.896;11.424;2022-08-21T17:05:40;21.30;99.90
12889;DHT22;56848;49.896;11.424;2022-08-21T17:08:06;21.20;99.90
12889;DHT22;56848;49.896;11.424;2022-08-21T17:10:33;21.20;99.90
12889;DHT22;56848;49.896;11.424;2022-08-21T17:12:59;21.20;99.90
12889;DHT22;56848;49.896;11.424;2022-08-21T17:15:28;21.30;99.90
12889;DHT22;56848;49.896;11.424;2022-08-21T17:17:55;21.30;99.90
12889;DHT22;56848;49.896;11.424;2022-08-21T17:20:21;21.20;99.90
12889;DHT22;56848;49.896;11.424;2022-08-21T17:22:47;21.20;99.90
12889;DHT22;56848;49.896;11.424;2022-08-21T17:25:13;21.30;99.90
12889;DHT22;56848;49.896;11.424;2022-08-21T17:27:42;21.40;99.90
12889;DHT22;56848;49.896;11.424;2022-08-21T17:30:09;21.40;99.90
12889;DHT22;56848;49.896;11.424;2022-08-21T17:32:36;21.50;99.90
12889;DHT22;56848;49.896;11.424;2022-08-21T17:35:03;21.50;99.90
12889;DHT22;56848;49.896;11.424;2022-08-21T17:37:29;21.60;99.90
12889;DHT22;56848;49.896;11.424;2022-08-21T17:39:55;21.60;99.90
12889;DHT22;56848;49.896;11.424;2022-08-21T17:42:21;21.60;99.90
12889;DHT22;56848;49.896;11.424;2022-08-21T17:44:48;21.70;99.90
12889;DHT22;56848;49.896;11.424;2022-08-21T17:47:14;21.70;99.90
12889;DHT22;56848;49.896;11.424;2022-08-21T17:49:40;21.70;99.90
12889;DHT22;56848;49.896;11.424;2022-08-21T17:52:06;21.60;99.90
12889;DHT22;56848;49.896;11.424;2022-08-21T17:54:32;21.40;99.90
12889;DHT22;56848;49.896;11.424;2022-08-21T17:56:58;21.40;99.90
12889;DHT22;56848;49.896;11.424;2022-08-21T17:59:24;21.30;99.90
12889;DHT22;56848;49.896;11.424;2022-08-21T18:01:50;21.20;99.90
12889;DHT22;56848;49.896;11.424;2022-08-21T18:04:16;21.00;99.90
12889;DHT22;56848;49.896;11.424;2022-08-21T18:06:43;20.80;99.90
12889;DHT22;56848;49.896;11.424;2022-08-21T18:09:09;20.70;99.90
12889;DHT22;56848;49.896;11.424;2022-08-21T18:11:36;20.50;99.90
12889;DHT22;56848;49.896;11.424;2022-08-21T18:14:03;20.30;99.90
12889;DHT22;56848;49.896;11.424;2022-08-21T18:16:31;20.10;99.90
12889;DHT22;56848;49.896;11.424;2022-08-21T18:18:59;20.00;99.90
12889;DHT22;56848;49.896;11.424;2022-08-21T18:21:25;19.90;99.90
12889;DHT22;56848;49.896;11.424;2022-08-21T18:23:52;19.70;99.90
12889;DHT22;56848;49.896;11.424;2022-08-21T18:26:29;19.80;99.90
12889;DHT22;56848;49.896;11.424;2022-08-21T18:28:57;19.60;99.90
12889;DHT22;56848;49.896;11.424;2022-08-21T18:31:27;19.60;99.90
12889;DHT22;56848;49.896;11.424;2022-08-21T18:33:53;19.60;99.90
12889;DHT22;56848;49.896;11.424;2022-08-21T18:36:19;19.60;99.90
12889;DHT22;56848;49.896;11.424;2022-08-21T18:38:45;19.50;99.90
12889;DHT22;56848;49.896;11.424;2022-08-21T18:41:10;19.50;99.90
12889;DHT22;56848;49.896;11.424;2022-08-21T18:43:37;19.30;99.90
12889;DHT22;56848;49.896;11.424;2022-08-21T18:46:03;19.20;99.90
12889;DHT22;56848;49.896;11.424;2022-08-21T18:48:29;19.30;99.90
12889;DHT22;56848;49.896;11.424;2022-08-21T18:50:56;19.30;99.90
12889;DHT22;56848;49.896;11.424;2022-08-21T18:53:22;19.30;99.90
12889;DHT22;56848;49.896;11.424;2022-08-21T18:55:48;19.30;99.90
12889;DHT22;56848;49.896;11.424;2022-08-21T18:58:15;19.30;99.90
12889;DHT22;56848;49.896;11.424;2022-08-21T19:00:44;19.20;99.90
12889;DHT22;56848;49.896;11.424;2022-08-21T19:03:17;19.20;99.90
12889;DHT22;56848;49.896;11.424;2022-08-21T19:05:44;19.20;99.90
12889;DHT22;56848;49.896;11.424;2022-08-21T19:08:12;19.20;99.90
12889;DHT22;56848;49.896;11.424;2022-08-21T19:10:39;19.10;99.90
12889;DHT22;56848;49.896;11.424;2022-08-21T19:13:06;19.10;99.90
12889;DHT22;56848;49.896;11.424;2022-08-21T19:15:33;19.00;99.90
12889;DHT22;56848;49.896;11.424;2022-08-21T19:18:02;19.00;99.90
12889;DHT22;56848;49.896;11.424;2022-08-21T19:20:31;18.90;99.90
12889;DHT22;56848;49.896;11.424;2022-08-21T19:23:03;18.90;99.90
12889;DHT22;56848;49.896;11.424;2022-08-21T19:25:30;18.80;99.90
12889;DHT22;56848;49.896;11.424;2022-08-21T19:27:56;18.80;99.90
12889;DHT22;56848;49.896;11.424;2022-08-21T19:30:22;18.70;99.90
12889;DHT22;56848;49.896;11.424;2022-08-21T19:32:48;18.60;99.90
12889;DHT22;56848;49.896;11.424;2022-08-21T19:35:15;18.50;99.90
12889;DHT22;56848;49.896;11.424;2022-08-21T19:37:45;18.40;99.90
12889;DHT22;56848;49.896;11.424;2022-08-21T19:40:13;18.40;99.90
12889;DHT22;56848;49.896;11.424;2022-08-21T19:42:40;18.10;99.90
12889;DHT22;56848;49.896;11.424;2022-08-21T19:45:07;18.00;99.90
12889;DHT22;56848;49.896;11.424;2022-08-21T19:47:34;18.00;99.90
12889;DHT22;56848;49.896;11.424;2022-08-21T19:50:02;18.00;99.90
12889;DHT22;56848;49.896;11.424;2022-08-21T19:52:28;17.90;99.90
12889;DHT22;56848;49.896;11.424;2022-08-21T19:54:56;17.70;99.90
12889;DHT22;56848;49.896;11.424;2022-08-21T19:57:22;17.60;99.90
12889;DHT22;56848;49.896;11.424;2022-08-21T19:59:49;17.50;99.90
12889;DHT22;56848;49.896;11.424;2022-08-21T20:02:15;17.50;99.90
12889;DHT22;56848;49.896;11.424;2022-08-21T20:04:45;17.40;99.90
12889;DHT22;56848;49.896;11.424;2022-08-21T20:07:10;17.30;99.90
12889;DHT22;56848;49.896;11.424;2022-08-21T20:09:36;17.20;99.90
12889;DHT22;56848;49.896;11.424;2022-08-21T20:12:05;17.20;99.90
12889;DHT22;56848;49.896;11.424;2022-08-21T20:14:32;17.20;99.90
12889;DHT22;56848;49.896;11.424;2022-08-21T20:17:06;17.20;99.90
12889;DHT22;56848;49.896;11.424;2022-08-21T20:19:34;17.10;99.90
12889;DHT22;56848;49.896;11.424;2022-08-21T20:22:00;17.20;99.90
12889;DHT22;56848;49.896;11.424;2022-08-21T20:24:26;16.90;99.90
12889;DHT22;56848;49.896;11.424;2022-08-21T20:26:52;16.80;99.90
12889;DHT22;56848;49.896;11.424;2022-08-21T20:29:19;16.90;99.90
12889;DHT22;56848;49.896;11.424;2022-08-21T20:31:45;16.80;99.90
12889;DHT22;56848;49.896;11.424;2022-08-21T20:34:11;16.70;99.90
12889;DHT22;56848;49.896;11.424;2022-08-21T20:36:37;16.70;99.90
12889;DHT22;56848;49.896;11.424;2022-08-21T20:39:03;16.70;99.90
12889;DHT22;56848;49.896;11.424;2022-08-21T20:41:30;16.70;99.90
12889;DHT22;56848;49.896;11.424;2022-08-21T20:43:58;16.70;99.90
12889;DHT22;56848;49.896;11.424;2022-08-21T20:46:26;16.60;99.90
12889;DHT22;56848;49.896;11.424;2022-08-21T20:48:53;16.60;99.90
12889;DHT22;56848;49.896;11.424;2022-08-21T20:51:43;16.50;99.90
12889;DHT22;56848;49.896;11.424;2022-08-21T20:54:40;16.50;99.90
12889;DHT22;56848;49.896;11.424;2022-08-21T20:59:59;16.30;99.90
